sensor_id;sensor_type;location;lat;lon;timestamp;pressure;altitude;pressure_sealevel;temperature;humidity
61292;BME280;47165;42.664;23.368;2022-09-09T00:01:30;95232.28;;;21.02;56.89
61292;BME280;47165;42.664;23.368;2022-09-09T00:04:00;95222.59;;;20.83;57.37
61292;BME280;47165;42.664;23.368;2022-09-09T00:06:43;95218.28;;;20.82;57.41
61292;BME280;47165;42.664;23.368;2022-09-09T00:09:14;95216.59;;;20.81;57.25
61292;BME280;47165;42.664;23.368;2022-09-09T00:11:47;95230.28;;;20.86;57.35
61292;BME280;47165;42.664;23.368;2022-09-09T00:14:21;95229.16;;;20.88;57.50
61292;BME280;47165;42.664;23.368;2022-09-09T00:16:56;95224.41;;;20.92;57.06
61292;BME280;47165;42.664;23.368;2022-09-09T00:19:49;95223.41;;;20.93;56.94
61292;BME280;47165;42.664;23.368;2022-09-09T00:22:25;95224.91;;;20.96;57.02
61292;BME280;47165;42.664;23.368;2022-09-09T00:24:54;95220.75;;;20.93;56.99
61292;BME280;47165;42.664;23.368;2022-09-09T00:32:36;95205.63;;;20.94;57.11
61292;BME280;47165;42.664;23.368;2022-09-09T00:35:23;95198.22;;;20.97;56.70
61292;BME280;47165;42.664;23.368;2022-09-09T00:37:53;95194.19;;;20.93;56.98
61292;BME280;47165;42.664;23.368;2022-09-09T00:40:28;95196.72;;;20.95;56.72
61292;BME280;47165;42.664;23.368;2022-09-09T00:43:24;95193.06;;;20.96;56.45
61292;BME280;47165;42.664;23.368;2022-09-09T00:46:19;95175.75;;;20.92;56.98
61292;BME280;47165;42.664;23.368;2022-09-09T00:51:43;95182.22;;;20.79;56.95
61292;BME280;47165;42.664;23.368;2022-09-09T00:54:44;95192.31;;;20.76;57.00
61292;BME280;47165;42.664;23.368;2022-09-09T00:59:56;95181.84;;;20.74;56.99
61292;BME280;47165;42.664;23.368;2022-09-09T01:02:41;95180.72;;;20.77;56.87
61292;BME280;47165;42.664;23.368;2022-09-09T01:08:14;95177.25;;;20.66;56.96
61292;BME280;47165;42.664;23.368;2022-09-09T01:10:51;95173.63;;;20.67;56.73
61292;BME280;47165;42.664;23.368;2022-09-09T01:13:25;95180.59;;;20.68;57.16
61292;BME280;47165;42.664;23.368;2022-09-09T01:15:52;95186.03;;;20.67;56.65
61292;BME280;47165;42.664;23.368;2022-09-09T01:18:21;95186.22;;;20.65;56.52
61292;BME280;47165;42.664;23.368;2022-09-09T01:28:57;95179.06;;;20.66;56.24
61292;BME280;47165;42.664;23.368;2022-09-09T01:31:27;95183.94;;;20.70;56.15
61292;BME280;47165;42.664;23.368;2022-09-09T01:33:53;95175.97;;;20.70;55.96
61292;BME280;47165;42.664;23.368;2022-09-09T01:36:31;95181.59;;;20.67;56.95
61292;BME280;47165;42.664;23.368;2022-09-09T01:38:58;95194.03;;;20.57;56.86
61292;BME280;47165;42.664;23.368;2022-09-09T01:41:24;95206.88;;;20.52;57.34
61292;BME280;47165;42.664;23.368;2022-09-09T01:43:50;95204.50;;;20.49;57.18
61292;BME280;47165;42.664;23.368;2022-09-09T01:46:18;95201.44;;;20.54;57.42
61292;BME280;47165;42.664;23.368;2022-09-09T01:48:45;95195.69;;;20.48;57.72
61292;BME280;47165;42.664;23.368;2022-09-09T01:51:11;95201.44;;;20.44;58.24
61292;BME280;47165;42.664;23.368;2022-09-09T01:53:39;95205.63;;;20.46;58.24
61292;BME280;47165;42.664;23.368;2022-09-09T01:56:15;95205.47;;;20.48;58.10
61292;BME280;47165;42.664;23.368;2022-09-09T02:06:45;95207.19;;;20.29;58.03
61292;BME280;47165;42.664;23.368;2022-09-09T02:09:12;95201.19;;;20.27;58.16
61292;BME280;47165;42.664;23.368;2022-09-09T02:11:38;95204.66;;;20.28;58.50
61292;BME280;47165;42.664;23.368;2022-09-09T02:14:12;95201.06;;;20.29;57.98
61292;BME280;47165;42.664;23.368;2022-09-09T02:19:14;95187.81;;;20.09;58.77
61292;BME280;47165;42.664;23.368;2022-09-09T02:21:43;95178.88;;;19.91;59.38
61292;BME280;47165;42.664;23.368;2022-09-09T02:24:12;95176.81;;;19.95;58.90
61292;BME280;47165;42.664;23.368;2022-09-09T02:26:41;95180.44;;;19.94;58.89
61292;BME280;47165;42.664;23.368;2022-09-09T02:29:26;95180.72;;;19.90;59.85
61292;BME280;47165;42.664;23.368;2022-09-09T02:31:56;95193.28;;;19.88;59.77
61292;BME280;47165;42.664;23.368;2022-09-09T02:34:24;95183.66;;;19.87;60.05
61292;BME280;47165;42.664;23.368;2022-09-09T02:36:53;95189.34;;;19.83;60.00
61292;BME280;47165;42.664;23.368;2022-09-09T02:39:20;95190.91;;;19.85;59.69
61292;BME280;47165;42.664;23.368;2022-09-09T02:41:45;95189.66;;;19.89;59.59
61292;BME280;47165;42.664;23.368;2022-09-09T02:44:14;95197.31;;;19.93;59.60
61292;BME280;47165;42.664;23.368;2022-09-09T02:52:18;95210.84;;;19.89;59.84
61292;BME280;47165;42.664;23.368;2022-09-09T02:54:50;95206.66;;;19.77;60.29
61292;BME280;47165;42.664;23.368;2022-09-09T02:57:22;95204.97;;;19.76;60.10
61292;BME280;47165;42.664;23.368;2022-09-09T02:59:49;95207.38;;;19.79;60.23
61292;BME280;47165;42.664;23.368;2022-09-09T03:02:15;95203.84;;;19.79;60.07
61292;BME280;47165;42.664;23.368;2022-09-09T03:04:40;95200.81;;;19.74;60.28
61292;BME280;47165;42.664;23.368;2022-09-09T03:07:09;95198.28;;;19.72;60.13
61292;BME280;47165;42.664;23.368;2022-09-09T03:09:35;95208.28;;;19.68;59.99
61292;BME280;47165;42.664;23.368;2022-09-09T03:12:01;95205.22;;;19.63;60.80
61292;BME280;47165;42.664;23.368;2022-09-09T03:14:26;95206.88;;;19.64;60.55
61292;BME280;47165;42.664;23.368;2022-09-09T03:16:52;95214.69;;;19.66;60.12
61292;BME280;47165;42.664;23.368;2022-09-09T03:19:19;95208.00;;;19.62;60.06
61292;BME280;47165;42.664;23.368;2022-09-09T03:21:45;95215.94;;;19.62;60.41
61292;BME280;47165;42.664;23.368;2022-09-09T03:24:11;95209.94;;;19.60;60.87
61292;BME280;47165;42.664;23.368;2022-09-09T03:26:36;95205.78;;;19.57;60.22
61292;BME280;47165;42.664;23.368;2022-09-09T03:29:06;95203.53;;;19.53;60.60
61292;BME280;47165;42.664;23.368;2022-09-09T03:31:33;95204.38;;;19.53;61.26
61292;BME280;47165;42.664;23.368;2022-09-09T03:33:59;95209.38;;;19.46;60.83
61292;BME280;47165;42.664;23.368;2022-09-09T03:36:26;95210.75;;;19.41;60.89
61292;BME280;47165;42.664;23.368;2022-09-09T03:38:52;95210.63;;;19.42;60.64
61292;BME280;47165;42.664;23.368;2022-09-09T03:41:18;95209.50;;;19.35;61.29
61292;BME280;47165;42.664;23.368;2022-09-09T03:43:44;95200.84;;;19.33;61.77
61292;BME280;47165;42.664;23.368;2022-09-09T03:46:10;95203.50;;;19.33;61.37
61292;BME280;47165;42.664;23.368;2022-09-09T03:48:35;95204.47;;;19.32;61.16
61292;BME280;47165;42.664;23.368;2022-09-09T03:51:00;95205.44;;;19.31;60.67
61292;BME280;47165;42.664;23.368;2022-09-09T03:53:27;95212.69;;;19.29;60.40
61292;BME280;47165;42.664;23.368;2022-09-09T03:55:54;95210.72;;;19.31;60.27
61292;BME280;47165;42.664;23.368;2022-09-09T03:58:22;95211.72;;;19.30;60.36
61292;BME280;47165;42.664;23.368;2022-09-09T04:00:54;95209.91;;;19.30;60.83
61292;BME280;47165;42.664;23.368;2022-09-09T04:03:19;95217.84;;;19.30;61.17
61292;BME280;47165;42.664;23.368;2022-09-09T04:05:48;95221.75;;;19.26;61.48
61292;BME280;47165;42.664;23.368;2022-09-09T04:08:14;95215.03;;;19.22;62.09
61292;BME280;47165;42.664;23.368;2022-09-09T04:10:40;95220.47;;;19.21;61.99
61292;BME280;47165;42.664;23.368;2022-09-09T04:13:05;95216.00;;;19.21;61.96
61292;BME280;47165;42.664;23.368;2022-09-09T04:15:31;95218.25;;;19.26;61.84
61292;BME280;47165;42.664;23.368;2022-09-09T04:17:57;95216.31;;;19.28;61.28
61292;BME280;47165;42.664;23.368;2022-09-09T04:20:23;95215.75;;;19.24;60.78
61292;BME280;47165;42.664;23.368;2022-09-09T04:22:49;95208.91;;;19.22;60.91
61292;BME280;47165;42.664;23.368;2022-09-09T04:25:14;95211.56;;;19.22;60.83
61292;BME280;47165;42.664;23.368;2022-09-09T04:27:40;95219.22;;;19.25;60.65
61292;BME280;47165;42.664;23.368;2022-09-09T04:30:06;95210.69;;;19.21;60.93
61292;BME280;47165;42.664;23.368;2022-09-09T04:32:35;95222.84;;;19.24;60.82
61292;BME280;47165;42.664;23.368;2022-09-09T04:35:02;95214.22;;;19.22;61.04
61292;BME280;47165;42.664;23.368;2022-09-09T04:37:27;95211.81;;;19.19;61.25
61292;BME280;47165;42.664;23.368;2022-09-09T04:39:53;95214.47;;;19.19;61.47
61292;BME280;47165;42.664;23.368;2022-09-09T04:42:19;95223.81;;;19.23;61.70
61292;BME280;47165;42.664;23.368;2022-09-09T04:44:44;95229.09;;;19.23;61.12
61292;BME280;47165;42.664;23.368;2022-09-09T04:47:10;95231.88;;;19.21;61.74
61292;BME280;47165;42.664;23.368;2022-09-09T04:49:36;95227.28;;;19.23;61.70
61292;BME280;47165;42.664;23.368;2022-09-09T04:52:03;95224.78;;;19.22;61.98
61292;BME280;47165;42.664;23.368;2022-09-09T04:54:29;95208.75;;;19.23;61.79
61292;BME280;47165;42.664;23.368;2022-09-09T04:56:55;95205.72;;;19.28;61.85
61292;BME280;47165;42.664;23.368;2022-09-09T04:59:21;95204.75;;;19.29;61.57
61292;BME280;47165;42.664;23.368;2022-09-09T05:01:47;95201.13;;;19.30;61.61
61292;BME280;47165;42.664;23.368;2022-09-09T05:04:13;95208.91;;;19.32;61.55
61292;BME280;47165;42.664;23.368;2022-09-09T05:06:42;95211.41;;;19.23;61.96
61292;BME280;47165;42.664;23.368;2022-09-09T05:09:08;95204.75;;;19.29;61.74
61292;BME280;47165;42.664;23.368;2022-09-09T05:11:34;95193.19;;;19.30;61.98
61292;BME280;47165;42.664;23.368;2022-09-09T05:14:02;95185.25;;;19.30;62.27
61292;BME280;47165;42.664;23.368;2022-09-09T05:16:28;95188.72;;;19.30;62.05
61292;BME280;47165;42.664;23.368;2022-09-09T05:18:54;95187.59;;;19.33;62.11
61292;BME280;47165;42.664;23.368;2022-09-09T05:21:21;95206.59;;;19.38;61.90
61292;BME280;47165;42.664;23.368;2022-09-09T05:23:46;95205.19;;;19.44;61.48
61292;BME280;47165;42.664;23.368;2022-09-09T05:26:17;95184.31;;;19.50;61.26
61292;BME280;47165;42.664;23.368;2022-09-09T05:28:43;95189.06;;;19.57;60.74
61292;BME280;47165;42.664;23.368;2022-09-09T05:31:10;95188.22;;;19.66;60.53
61292;BME280;47165;42.664;23.368;2022-09-09T05:33:40;95190.34;;;19.72;60.30
61292;BME280;47165;42.664;23.368;2022-09-09T05:36:11;95180.88;;;19.79;59.86
61292;BME280;47165;42.664;23.368;2022-09-09T05:38:40;95186.56;;;19.84;59.85
61292;BME280;47165;42.664;23.368;2022-09-09T05:41:07;95182.41;;;19.92;59.57
61292;BME280;47165;42.664;23.368;2022-09-09T05:43:34;95192.44;;;19.98;58.92
61292;BME280;47165;42.664;23.368;2022-09-09T05:46:06;95197.19;;;20.04;59.13
61292;BME280;47165;42.664;23.368;2022-09-09T05:48:35;95200.22;;;20.09;58.24
61292;BME280;47165;42.664;23.368;2022-09-09T05:51:03;95206.09;;;20.13;58.03
61292;BME280;47165;42.664;23.368;2022-09-09T05:53:30;95206.38;;;20.19;57.51
61292;BME280;47165;42.664;23.368;2022-09-09T05:56:07;95200.34;;;20.27;56.84
61292;BME280;47165;42.664;23.368;2022-09-09T05:58:35;95196.19;;;20.24;56.29
61292;BME280;47165;42.664;23.368;2022-09-09T06:01:09;95196.31;;;20.33;56.39
61292;BME280;47165;42.664;23.368;2022-09-09T06:03:39;95201.31;;;20.36;56.79
61292;BME280;47165;42.664;23.368;2022-09-09T06:06:09;95210.38;;;20.43;56.52
61292;BME280;47165;42.664;23.368;2022-09-09T06:08:37;95218.59;;;20.49;56.39
61292;BME280;47165;42.664;23.368;2022-09-09T06:13:30;95220.56;;;20.57;56.41
61292;BME280;47165;42.664;23.368;2022-09-09T06:15:56;95215.66;;;20.62;56.23
61292;BME280;47165;42.664;23.368;2022-09-09T06:18:21;95209.91;;;20.67;55.86
61292;BME280;47165;42.664;23.368;2022-09-09T06:20:58;95205.59;;;20.76;56.13
61292;BME280;47165;42.664;23.368;2022-09-09T06:23:24;95208.06;;;20.77;55.90
61292;BME280;47165;42.664;23.368;2022-09-09T06:25:50;95215.31;;;20.85;55.70
61292;BME280;47165;42.664;23.368;2022-09-09T06:28:17;95216.31;;;20.84;55.65
61292;BME280;47165;42.664;23.368;2022-09-09T06:30:43;95214.75;;;20.91;54.83
61292;BME280;47165;42.664;23.368;2022-09-09T06:33:10;95214.97;;;20.98;55.03
61292;BME280;47165;42.664;23.368;2022-09-09T06:35:35;95213.72;;;21.02;54.61
61292;BME280;47165;42.664;23.368;2022-09-09T06:38:01;95204.63;;;21.04;54.63
61292;BME280;47165;42.664;23.368;2022-09-09T06:40:26;95205.72;;;21.12;54.37
61292;BME280;47165;42.664;23.368;2022-09-09T06:42:52;95199.44;;;21.13;53.92
61292;BME280;47165;42.664;23.368;2022-09-09T06:45:17;95196.09;;;21.10;53.61
61292;BME280;47165;42.664;23.368;2022-09-09T06:47:43;95203.16;;;21.20;53.56
61292;BME280;47165;42.664;23.368;2022-09-09T06:50:09;95194.59;;;21.26;53.40
61292;BME280;47165;42.664;23.368;2022-09-09T06:52:36;95206.31;;;21.33;53.50
61292;BME280;47165;42.664;23.368;2022-09-09T06:55:01;95206.13;;;21.35;53.05
61292;BME280;47165;42.664;23.368;2022-09-09T06:57:27;95210.75;;;21.42;52.94
61292;BME280;47165;42.664;23.368;2022-09-09T06:59:53;95221.78;;;21.47;52.77
61292;BME280;47165;42.664;23.368;2022-09-09T07:02:18;95217.66;;;21.53;52.27
61292;BME280;47165;42.664;23.368;2022-09-09T07:04:44;95219.03;;;21.57;51.85
61292;BME280;47165;42.664;23.368;2022-09-09T07:07:09;95219.59;;;21.61;51.32
61292;BME280;47165;42.664;23.368;2022-09-09T07:09:37;95215.66;;;21.65;50.91
61292;BME280;47165;42.664;23.368;2022-09-09T07:12:03;95220.06;;;21.74;51.45
61292;BME280;47165;42.664;23.368;2022-09-09T07:14:30;95220.44;;;21.79;49.72
61292;BME280;47165;42.664;23.368;2022-09-09T07:16:56;95207.56;;;21.84;49.92
61292;BME280;47165;42.664;23.368;2022-09-09T07:19:22;95206.94;;;21.90;49.91
61292;BME280;47165;42.664;23.368;2022-09-09T07:21:47;95209.00;;;21.97;49.41
61292;BME280;47165;42.664;23.368;2022-09-09T07:24:13;95211.72;;;22.05;49.82
61292;BME280;47165;42.664;23.368;2022-09-09T07:26:39;95204.66;;;22.14;49.81
61292;BME280;47165;42.664;23.368;2022-09-09T07:29:05;95206.56;;;22.21;49.71
61292;BME280;47165;42.664;23.368;2022-09-09T07:31:33;95196.16;;;22.28;48.52
61292;BME280;47165;42.664;23.368;2022-09-09T07:33:59;95194.38;;;22.37;48.48
61292;BME280;47165;42.664;23.368;2022-09-09T07:36:27;95197.09;;;22.45;47.93
61292;BME280;47165;42.664;23.368;2022-09-09T07:38:55;95196.19;;;22.54;48.83
61292;BME280;47165;42.664;23.368;2022-09-09T07:41:31;95188.53;;;22.59;47.33
61292;BME280;47165;42.664;23.368;2022-09-09T07:43:57;95193.22;;;22.39;47.87
61292;BME280;47165;42.664;23.368;2022-09-09T07:46:25;95204.84;;;22.56;47.93
61292;BME280;47165;42.664;23.368;2022-09-09T07:48:53;95207.44;;;22.74;48.00
61292;BME280;47165;42.664;23.368;2022-09-09T07:51:25;95208.69;;;22.88;48.27
61292;BME280;47165;42.664;23.368;2022-09-09T07:53:53;95213.28;;;23.04;48.39
61292;BME280;47165;42.664;23.368;2022-09-09T07:56:19;95206.69;;;23.16;48.13
61292;BME280;47165;42.664;23.368;2022-09-09T07:58:49;95202.19;;;23.17;45.84
61292;BME280;47165;42.664;23.368;2022-09-09T08:01:17;95201.28;;;23.34;46.95
61292;BME280;47165;42.664;23.368;2022-09-09T08:03:47;95192.66;;;23.48;46.65
61292;BME280;47165;42.664;23.368;2022-09-09T08:06:16;95193.84;;;23.62;46.29
61292;BME280;47165;42.664;23.368;2022-09-09T08:08:42;95199.56;;;23.76;45.97
61292;BME280;47165;42.664;23.368;2022-09-09T08:11:11;95196.94;;;23.92;45.22
61292;BME280;47165;42.664;23.368;2022-09-09T08:13:38;95198.28;;;24.04;44.49
61292;BME280;47165;42.664;23.368;2022-09-09T08:16:31;95197.28;;;24.22;44.69
61292;BME280;47165;42.664;23.368;2022-09-09T08:18:57;95203.47;;;24.30;45.23
61292;BME280;47165;42.664;23.368;2022-09-09T08:21:27;95204.47;;;24.46;45.44
61292;BME280;47165;42.664;23.368;2022-09-09T08:23:54;95194.81;;;24.61;43.72
61292;BME280;47165;42.664;23.368;2022-09-09T08:26:26;95188.13;;;24.74;42.89
61292;BME280;47165;42.664;23.368;2022-09-09T08:28:54;95191.91;;;24.87;42.22
61292;BME280;47165;42.664;23.368;2022-09-09T08:31:26;95196.06;;;24.98;42.24
61292;BME280;47165;42.664;23.368;2022-09-09T08:33:57;95184.03;;;25.02;42.29
61292;BME280;47165;42.664;23.368;2022-09-09T08:36:27;95189.47;;;25.25;42.41
61292;BME280;47165;42.664;23.368;2022-09-09T08:38:56;95183.03;;;25.43;42.60
61292;BME280;47165;42.664;23.368;2022-09-09T08:43:48;95187.38;;;25.75;42.97
61292;BME280;47165;42.664;23.368;2022-09-09T08:52:47;95173.75;;;26.16;41.28
61292;BME280;47165;42.664;23.368;2022-09-09T08:58:17;95168.56;;;26.38;39.74
61292;BME280;47165;42.664;23.368;2022-09-09T09:03:55;95171.13;;;26.69;39.58
61292;BME280;47165;42.664;23.368;2022-09-09T09:12:23;95167.94;;;27.03;39.55
61292;BME280;47165;42.664;23.368;2022-09-09T09:14:50;95168.84;;;27.10;40.78
61292;BME280;47165;42.664;23.368;2022-09-09T09:17:20;95175.72;;;27.28;39.42
61292;BME280;47165;42.664;23.368;2022-09-09T09:19:47;95172.19;;;27.42;38.48
61292;BME280;47165;42.664;23.368;2022-09-09T09:27:40;95160.72;;;27.70;37.79
61292;BME280;47165;42.664;23.368;2022-09-09T09:30:22;95156.72;;;27.81;37.08
61292;BME280;47165;42.664;23.368;2022-09-09T09:33:04;95168.00;;;27.91;37.30
61292;BME280;47165;42.664;23.368;2022-09-09T09:35:30;95167.44;;;27.96;36.98
61292;BME280;47165;42.664;23.368;2022-09-09T09:37:56;95163.06;;;27.95;36.86
61292;BME280;47165;42.664;23.368;2022-09-09T09:40:22;95165.41;;;27.98;37.53
61292;BME280;47165;42.664;23.368;2022-09-09T09:42:54;95161.31;;;28.02;37.51
61292;BME280;47165;42.664;23.368;2022-09-09T09:45:27;95154.31;;;28.07;37.53
61292;BME280;47165;42.664;23.368;2022-09-09T09:48:05;95151.13;;;28.19;38.18
61292;BME280;47165;42.664;23.368;2022-09-09T09:50:32;95145.84;;;28.32;38.03
61292;BME280;47165;42.664;23.368;2022-09-09T09:53:03;95137.66;;;28.40;36.69
61292;BME280;47165;42.664;23.368;2022-09-09T09:55:33;95140.31;;;28.55;36.66
61292;BME280;47165;42.664;23.368;2022-09-09T09:58:04;95140.53;;;28.60;36.68
61292;BME280;47165;42.664;23.368;2022-09-09T10:00:30;95133.38;;;28.67;37.38
61292;BME280;47165;42.664;23.368;2022-09-09T10:02:59;95130.69;;;28.67;35.55
61292;BME280;47165;42.664;23.368;2022-09-09T10:05:27;95134.22;;;28.75;36.00
61292;BME280;47165;42.664;23.368;2022-09-09T10:13:22;95154.56;;;28.84;37.23
61292;BME280;47165;42.664;23.368;2022-09-09T10:24:03;95165.78;;;28.44;35.36
61292;BME280;47165;42.664;23.368;2022-09-09T10:26:58;95160.13;;;28.33;35.71
61292;BME280;47165;42.664;23.368;2022-09-09T10:35:33;95154.56;;;28.34;36.86
61292;BME280;47165;42.664;23.368;2022-09-09T10:38:16;95157.47;;;28.33;37.40
61292;BME280;47165;42.664;23.368;2022-09-09T10:54:59;95157.47;;;28.11;36.83
61292;BME280;47165;42.664;23.368;2022-09-09T11:00:06;95158.09;;;28.13;36.96
61292;BME280;47165;42.664;23.368;2022-09-09T11:02:40;95149.81;;;28.08;36.75
61292;BME280;47165;42.664;23.368;2022-09-09T11:05:14;95151.56;;;28.01;36.88
61292;BME280;47165;42.664;23.368;2022-09-09T11:10:39;95159.16;;;27.97;36.94
61292;BME280;47165;42.664;23.368;2022-09-09T11:13:24;95152.16;;;27.96;37.24
61292;BME280;47165;42.664;23.368;2022-09-09T11:15:59;95157.72;;;27.95;37.38
61292;BME280;47165;42.664;23.368;2022-09-09T11:18:28;95158.75;;;27.94;37.11
61292;BME280;47165;42.664;23.368;2022-09-09T11:21:00;95152.16;;;27.96;37.16
61292;BME280;47165;42.664;23.368;2022-09-09T11:23:40;95145.19;;;28.02;36.96
61292;BME280;47165;42.664;23.368;2022-09-09T11:26:12;95144.44;;;28.08;37.17
61292;BME280;47165;42.664;23.368;2022-09-09T11:28:49;95141.97;;;28.13;37.13
61292;BME280;47165;42.664;23.368;2022-09-09T11:31:53;95138.34;;;28.21;37.06
61292;BME280;47165;42.664;23.368;2022-09-09T11:37:37;95120.88;;;28.32;37.42
61292;BME280;47165;42.664;23.368;2022-09-09T11:42:33;95108.72;;;28.36;37.71
61292;BME280;47165;42.664;23.368;2022-09-09T11:45:19;95114.56;;;28.46;37.31
61292;BME280;47165;42.664;23.368;2022-09-09T11:48:00;95107.22;;;28.55;38.27
61292;BME280;47165;42.664;23.368;2022-09-09T11:53:23;95081.28;;;28.68;38.99
61292;BME280;47165;42.664;23.368;2022-09-09T11:56:03;95061.47;;;28.76;38.05
61292;BME280;47165;42.664;23.368;2022-09-09T11:58:35;95061.50;;;28.83;38.65
61292;BME280;47165;42.664;23.368;2022-09-09T12:01:24;95066.50;;;28.93;38.31
61292;BME280;47165;42.664;23.368;2022-09-09T12:04:00;95073.59;;;29.00;38.39
61292;BME280;47165;42.664;23.368;2022-09-09T12:06:30;95078.97;;;29.00;37.18
61292;BME280;47165;42.664;23.368;2022-09-09T12:09:08;95081.78;;;29.27;36.83
61292;BME280;47165;42.664;23.368;2022-09-09T12:11:36;95074.38;;;29.42;36.27
61292;BME280;47165;42.664;23.368;2022-09-09T12:14:02;95070.50;;;29.65;37.08
61292;BME280;47165;42.664;23.368;2022-09-09T12:16:35;95062.69;;;29.77;35.75
61292;BME280;47165;42.664;23.368;2022-09-09T12:19:06;95059.78;;;29.98;36.80
61292;BME280;47165;42.664;23.368;2022-09-09T12:24:12;95053.16;;;30.47;36.90
61292;BME280;47165;42.664;23.368;2022-09-09T12:26:55;95051.66;;;30.85;35.50
61292;BME280;47165;42.664;23.368;2022-09-09T12:29:32;95056.72;;;31.13;35.30
61292;BME280;47165;42.664;23.368;2022-09-09T12:32:31;95049.00;;;31.30;33.59
61292;BME280;47165;42.664;23.368;2022-09-09T12:35:03;95047.88;;;31.51;34.06
61292;BME280;47165;42.664;23.368;2022-09-09T12:40:31;95024.75;;;31.94;31.66
61292;BME280;47165;42.664;23.368;2022-09-09T12:43:00;95019.72;;;31.97;32.99
61292;BME280;47165;42.664;23.368;2022-09-09T12:45:28;95033.66;;;31.94;33.45
61292;BME280;47165;42.664;23.368;2022-09-09T12:48:06;95025.63;;;31.87;33.48
61292;BME280;47165;42.664;23.368;2022-09-09T12:50:38;95022.94;;;31.56;32.69
61292;BME280;47165;42.664;23.368;2022-09-09T12:55:54;95025.47;;;30.99;33.58
61292;BME280;47165;42.664;23.368;2022-09-09T12:58:21;95025.72;;;30.97;34.91
61292;BME280;47165;42.664;23.368;2022-09-09T13:00:51;95015.91;;;31.10;34.43
61292;BME280;47165;42.664;23.368;2022-09-09T13:03:20;95006.44;;;31.32;34.45
61292;BME280;47165;42.664;23.368;2022-09-09T13:05:49;95014.97;;;31.67;34.15
61292;BME280;47165;42.664;23.368;2022-09-09T13:08:16;95002.13;;;31.88;33.15
61292;BME280;47165;42.664;23.368;2022-09-09T13:13:33;95002.16;;;32.13;32.47
61292;BME280;47165;42.664;23.368;2022-09-09T13:16:00;95002.34;;;32.18;33.06
61292;BME280;47165;42.664;23.368;2022-09-09T13:18:29;95004.03;;;32.13;32.56
61292;BME280;47165;42.664;23.368;2022-09-09T13:20:55;95002.38;;;32.12;32.45
61292;BME280;47165;42.664;23.368;2022-09-09T13:23:27;95001.34;;;32.13;32.17
61292;BME280;47165;42.664;23.368;2022-09-09T13:25:57;94998.09;;;32.04;32.89
61292;BME280;47165;42.664;23.368;2022-09-09T13:28:25;94992.09;;;32.02;33.04
61292;BME280;47165;42.664;23.368;2022-09-09T13:31:05;94985.94;;;32.13;33.21
61292;BME280;47165;42.664;23.368;2022-09-09T13:33:39;94984.59;;;32.04;32.91
61292;BME280;47165;42.664;23.368;2022-09-09T13:36:08;94981.88;;;32.04;33.06
61292;BME280;47165;42.664;23.368;2022-09-09T13:39:00;94985.56;;;32.10;33.24
61292;BME280;47165;42.664;23.368;2022-09-09T13:43:55;94980.69;;;31.93;33.45
61292;BME280;47165;42.664;23.368;2022-09-09T13:46:38;94973.72;;;31.85;34.10
61292;BME280;47165;42.664;23.368;2022-09-09T13:51:44;94971.22;;;31.59;34.00
61292;BME280;47165;42.664;23.368;2022-09-09T13:54:11;94963.81;;;31.47;34.70
61292;BME280;47165;42.664;23.368;2022-09-09T13:56:38;94961.75;;;31.43;35.15
61292;BME280;47165;42.664;23.368;2022-09-09T13:59:08;94965.97;;;31.32;34.64
61292;BME280;47165;42.664;23.368;2022-09-09T14:01:34;94971.13;;;31.34;35.43
61292;BME280;47165;42.664;23.368;2022-09-09T14:04:00;94960.59;;;31.25;34.56
61292;BME280;47165;42.664;23.368;2022-09-09T14:06:25;94962.78;;;31.48;33.97
61292;BME280;47165;42.664;23.368;2022-09-09T14:08:51;94964.88;;;31.46;34.46
61292;BME280;47165;42.664;23.368;2022-09-09T14:11:18;94965.81;;;31.84;33.56
61292;BME280;47165;42.664;23.368;2022-09-09T14:13:44;94962.16;;;32.22;32.67
61292;BME280;47165;42.664;23.368;2022-09-09T14:16:09;94960.91;;;32.24;32.45
61292;BME280;47165;42.664;23.368;2022-09-09T14:18:35;94948.19;;;31.81;33.21
61292;BME280;47165;42.664;23.368;2022-09-09T14:21:02;94951.91;;;32.31;33.50
61292;BME280;47165;42.664;23.368;2022-09-09T14:23:28;94948.00;;;33.00;31.78
61292;BME280;47165;42.664;23.368;2022-09-09T14:25:54;94940.69;;;33.19;30.61
61292;BME280;47165;42.664;23.368;2022-09-09T14:28:20;94936.94;;;33.32;30.65
61292;BME280;47165;42.664;23.368;2022-09-09T14:30:45;94938.13;;;33.36;30.75
61292;BME280;47165;42.664;23.368;2022-09-09T14:33:13;94936.97;;;33.44;30.80
61292;BME280;47165;42.664;23.368;2022-09-09T14:35:39;94943.41;;;33.31;30.36
61292;BME280;47165;42.664;23.368;2022-09-09T14:38:06;94932.88;;;33.11;30.54
61292;BME280;47165;42.664;23.368;2022-09-09T14:40:34;94935.22;;;32.89;31.47
61292;BME280;47165;42.664;23.368;2022-09-09T14:43:00;94938.94;;;32.58;32.24
61292;BME280;47165;42.664;23.368;2022-09-09T14:45:25;94938.09;;;32.39;32.44
61292;BME280;47165;42.664;23.368;2022-09-09T14:47:52;94937.00;;;32.03;33.99
61292;BME280;47165;42.664;23.368;2022-09-09T14:50:18;94936.41;;;32.01;33.58
61292;BME280;47165;42.664;23.368;2022-09-09T14:52:44;94933.56;;;31.89;33.02
61292;BME280;47165;42.664;23.368;2022-09-09T14:55:10;94937.28;;;31.70;34.14
61292;BME280;47165;42.664;23.368;2022-09-09T14:57:36;94928.91;;;31.53;33.55
61292;BME280;47165;42.664;23.368;2022-09-09T15:00:05;94936.72;;;31.29;33.33
61292;BME280;47165;42.664;23.368;2022-09-09T15:02:31;94938.59;;;30.90;34.29
61292;BME280;47165;42.664;23.368;2022-09-09T15:04:56;94945.16;;;30.49;34.87
61292;BME280;47165;42.664;23.368;2022-09-09T15:07:25;94940.88;;;30.21;35.76
61292;BME280;47165;42.664;23.368;2022-09-09T15:09:52;94958.09;;;29.94;36.99
61292;BME280;47165;42.664;23.368;2022-09-09T15:12:18;94948.78;;;29.63;37.40
61292;BME280;47165;42.664;23.368;2022-09-09T15:14:47;94969.06;;;29.45;38.16